Time;durP1;ratioP1;P1;durP2;ratioP2;P2;SDS_P1;SDS_P2;PMS_P1;PMS_P2;Temp;Humidity;BMP_temperature;BMP_pressure;BME280_temperature;BME280_humidity;BME280_pressure;Samples;Min_cycle;Max_cycle;Signal;HPM_P1;HPM_P2
2022/06/04 00:00:55;;;;;;;1.15;0.73;;;;;;;;;;4974424;28;20027;-82
2022/06/04 00:03:22;;;;;;;0.60;0.43;;;;;;;;;;5006827;28;20026;-81
2022/06/04 00:05:53;;;;;;;2.30;0.65;;;;;;;;;;4974509;28;20376;-81
2022/06/04 00:08:19;;;;;;;0.25;0.20;;;;;;;;;;4974280;28;20022;-81
2022/06/04 00:16:17;;;;;;;0.63;0.60;;;;;;;;;;4974385;28;20136;-81
2022/06/04 00:18:42;;;;;;;0.43;0.38;;;;;;;;;;4974059;28;20511;-81
2022/06/04 00:21:09;;;;;;;0.20;0.20;;;;;;;;;;4974951;28;20035;-81
2022/06/04 00:23:37;;;;;;;0.40;0.40;;;;;;;;;;5006607;28;20037;-81
2022/06/04 00:26:04;;;;;;;0.20;0.20;;;;;;;;;;4989286;28;20030;-81
2022/06/04 00:28:30;;;;;;;0.93;0.70;;;;;;;;;;4990368;28;20113;-80
2022/06/04 00:30:58;;;;;;;0.20;0.20;;;;;;;;;;4974138;28;20115;-82
2022/06/04 00:33:24;;;;;;;1.15;0.63;;;;;;;;;;4958132;28;20041;-81
2022/06/04 00:35:52;;;;;;;1.52;0.95;;;;;;;;;;4972449;28;20039;-81
2022/06/04 00:38:21;;;;;;;0.68;0.68;;;;;;;;;;4973672;28;20041;-82
2022/06/04 00:40:58;;;;;;;0.75;0.63;;;;;;;;;;4989088;28;20031;-81
2022/06/04 00:43:24;;;;;;;1.00;0.68;;;;;;;;;;4974541;28;20019;-81
2022/06/04 00:46:07;;;;;;;0.20;0.20;;;;;;;;;;4973832;28;20045;-80
2022/06/04 00:48:34;;;;;;;0.32;0.32;;;;;;;;;;4974973;28;20065;-81
2022/06/04 00:51:03;;;;;;;0.40;0.40;;;;;;;;;;4972167;28;20114;-81
2022/06/04 00:53:29;;;;;;;0.35;0.30;;;;;;;;;;4974832;28;20046;-81
2022/06/04 00:56:20;;;;;;;1.40;0.80;;;;;;;;;;4973661;28;20039;-81
2022/06/04 00:59:13;;;;;;;0.55;0.40;;;;;;;;;;4973661;28;20030;-81
2022/06/04 01:02:02;;;;;;;0.57;0.57;;;;;;;;;;4966887;28;20027;-81
2022/06/04 01:04:48;;;;;;;1.95;0.75;;;;;;;;;;4973667;28;20030;-81
2022/06/04 01:07:49;;;;;;;0.98;0.77;;;;;;;;;;4974773;28;20360;-81
2022/06/04 01:10:29;;;;;;;0.28;0.28;;;;;;;;;;4972364;28;20027;-81
2022/06/04 01:13:10;;;;;;;0.10;0.10;;;;;;;;;;4968384;28;20027;-81
2022/06/04 01:16:07;;;;;;;0.45;0.45;;;;;;;;;;4973245;28;20476;-81
2022/06/04 01:18:35;;;;;;;1.27;0.60;;;;;;;;;;4973105;28;20043;-80
2022/06/04 01:21:18;;;;;;;0.60;0.60;;;;;;;;;;4973776;28;20122;-80
2022/06/04 01:23:56;;;;;;;0.65;0.50;;;;;;;;;;4977237;28;20048;-81
2022/06/04 01:26:40;;;;;;;0.40;0.40;;;;;;;;;;4978157;28;20027;-80
2022/06/04 01:29:12;;;;;;;0.75;0.65;;;;;;;;;;4977442;28;20057;-81
2022/06/04 01:31:44;;;;;;;0.85;0.30;;;;;;;;;;4977458;28;20101;-80
2022/06/04 01:34:11;;;;;;;0.45;0.45;;;;;;;;;;4976839;28;20057;-81
2022/06/04 01:36:52;;;;;;;0.32;0.32;;;;;;;;;;4960983;28;20081;-81
2022/06/04 01:39:21;;;;;;;0.30;0.30;;;;;;;;;;4970227;28;20049;-81
2022/06/04 01:41:53;;;;;;;0.73;0.68;;;;;;;;;;4984855;28;20094;-79
2022/06/04 01:44:22;;;;;;;0.65;0.65;;;;;;;;;;4978547;28;20023;-81
2022/06/04 01:46:51;;;;;;;0.73;0.40;;;;;;;;;;4977207;28;20049;-79
2022/06/04 01:49:31;;;;;;;0.95;0.60;;;;;;;;;;5010260;28;20337;-79
2022/06/04 01:52:00;;;;;;;0.00;0.00;;;;;;;;;;5009984;28;20117;-80
2022/06/04 01:54:37;;;;;;;0.40;0.40;;;;;;;;;;5009601;28;20027;-79
2022/06/04 01:57:25;;;;;;;0.75;0.75;;;;;;;;;;4994519;28;20359;-81
2022/06/04 01:59:57;;;;;;;0.35;0.35;;;;;;;;;;5009314;28;20466;-79
2022/06/04 02:02:39;;;;;;;0.63;0.45;;;;;;;;;;4977023;28;20026;-80
2022/06/04 02:05:08;;;;;;;0.60;0.50;;;;;;;;;;4977906;28;20031;-81
2022/06/04 02:07:37;;;;;;;0.13;0.13;;;;;;;;;;4977073;28;20026;-79
2022/06/04 02:10:24;;;;;;;4.35;1.42;;;;;;;;;;4977696;28;20022;-80
2022/06/04 02:12:51;;;;;;;0.25;0.25;;;;;;;;;;4993423;28;20070;-79
2022/06/04 02:15:20;;;;;;;1.08;0.57;;;;;;;;;;5009219;28;20069;-79
2022/06/04 02:17:49;;;;;;;1.38;0.68;;;;;;;;;;4977722;28;20026;-80
2022/06/04 02:20:15;;;;;;;0.57;0.45;;;;;;;;;;4976527;28;20030;-81
2022/06/04 02:22:43;;;;;;;1.45;0.38;;;;;;;;;;4977398;28;20023;-79
2022/06/04 02:25:10;;;;;;;1.00;0.50;;;;;;;;;;4977798;28;20034;-79
2022/06/04 02:27:36;;;;;;;3.33;1.13;;;;;;;;;;4992631;28;20046;-78
2022/06/04 02:30:03;;;;;;;0.55;0.43;;;;;;;;;;4992532;28;20031;-80
2022/06/04 02:32:36;;;;;;;19.75;1.00;;;;;;;;;;4976220;28;20034;-79
2022/06/04 02:35:12;;;;;;;0.45;0.17;;;;;;;;;;4991788;28;20018;-81
2022/06/04 02:38:02;;;;;;;1.00;0.85;;;;;;;;;;4976992;28;20168;-80
2022/06/04 02:40:38;;;;;;;0.75;0.30;;;;;;;;;;4976982;28;20030;-81
2022/06/04 02:43:16;;;;;;;0.20;0.20;;;;;;;;;;4992212;28;20031;-81
2022/06/04 02:45:52;;;;;;;0.38;0.38;;;;;;;;;;5008532;28;20356;-81
2022/06/04 02:48:25;;;;;;;0.20;0.20;;;;;;;;;;5008787;28;20034;-80
2022/06/04 02:50:56;;;;;;;0.68;0.65;;;;;;;;;;4976010;28;20038;-81
2022/06/04 02:53:27;;;;;;;0.50;0.50;;;;;;;;;;5008687;28;20019;-81
2022/06/04 02:56:07;;;;;;;0.25;0.05;;;;;;;;;;4976054;28;20041;-82
2022/06/04 02:58:33;;;;;;;1.35;0.73;;;;;;;;;;4976840;28;20417;-80
2022/06/04 03:01:00;;;;;;;0.25;0.25;;;;;;;;;;5008423;28;20078;-79
2022/06/04 03:03:28;;;;;;;0.43;0.30;;;;;;;;;;4977543;28;20440;-80
2022/06/04 03:05:54;;;;;;;1.17;0.60;;;;;;;;;;4976602;28;20031;-80
2022/06/04 03:08:20;;;;;;;0.88;0.75;;;;;;;;;;4977272;28;20467;-82
2022/06/04 03:10:46;;;;;;;0.88;0.25;;;;;;;;;;4978003;28;20030;-80
2022/06/04 03:13:11;;;;;;;1.85;0.95;;;;;;;;;;4977466;28;20018;-80
2022/06/04 03:15:36;;;;;;;0.85;0.68;;;;;;;;;;4980225;28;20029;-80
2022/06/04 03:18:04;;;;;;;2.72;0.95;;;;;;;;;;4976653;28;20077;-80
2022/06/04 03:20:29;;;;;;;0.73;0.60;;;;;;;;;;4977465;28;20042;-80
2022/06/04 03:22:55;;;;;;;0.52;0.52;;;;;;;;;;4976556;28;20026;-78
2022/06/04 03:25:21;;;;;;;0.52;0.43;;;;;;;;;;4976582;28;20038;-80
2022/06/04 03:27:47;;;;;;;2.90;1.17;;;;;;;;;;4976497;28;20085;-80
2022/06/04 03:30:14;;;;;;;0.60;0.60;;;;;;;;;;5008599;28;20037;-80
2022/06/04 03:32:42;;;;;;;0.47;0.47;;;;;;;;;;4975934;28;20050;-80
2022/06/04 03:35:08;;;;;;;0.65;0.65;;;;;;;;;;4975217;28;20448;-78
2022/06/04 03:37:34;;;;;;;0.77;0.43;;;;;;;;;;5007649;28;20031;-80
2022/06/04 03:40:00;;;;;;;0.40;0.32;;;;;;;;;;4976019;28;20046;-81
2022/06/04 03:42:26;;;;;;;0.80;0.55;;;;;;;;;;4975837;28;20084;-79
2022/06/04 03:44:51;;;;;;;0.77;0.30;;;;;;;;;;5007593;28;20046;-81
2022/06/04 03:47:17;;;;;;;0.60;0.60;;;;;;;;;;4991108;28;20114;-81
2022/06/04 03:49:46;;;;;;;0.55;0.35;;;;;;;;;;4975765;28;20037;-81
2022/06/04 03:52:12;;;;;;;0.55;0.52;;;;;;;;;;4975791;28;20077;-78
2022/06/04 03:54:53;;;;;;;0.43;0.40;;;;;;;;;;4974839;28;20038;-80
2022/06/04 04:00:12;;;;;;;0.88;0.77;;;;;;;;;;4975985;28;20477;-78
2022/06/04 04:02:38;;;;;;;1.02;0.47;;;;;;;;;;4975393;28;20058;-79
2022/06/04 04:05:05;;;;;;;0.75;0.50;;;;;;;;;;4975476;28;20026;-79
2022/06/04 04:07:31;;;;;;;3.35;1.50;;;;;;;;;;4974868;28;20027;-80
2022/06/04 04:09:57;;;;;;;0.63;0.63;;;;;;;;;;4975600;28;20101;-80
2022/06/04 04:12:25;;;;;;;0.40;0.40;;;;;;;;;;4974902;28;20058;-80
2022/06/04 04:14:50;;;;;;;0.95;0.28;;;;;;;;;;4975723;28;20030;-81
2022/06/04 04:17:16;;;;;;;0.57;0.50;;;;;;;;;;4976359;28;20081;-80
2022/06/04 04:19:43;;;;;;;0.45;0.43;;;;;;;;;;4975485;28;20170;-81
2022/06/04 04:22:09;;;;;;;2.88;1.30;;;;;;;;;;4975308;28;20023;-80
2022/06/04 04:24:34;;;;;;;0.30;0.30;;;;;;;;;;4975724;28;20023;-80
2022/06/04 04:26:59;;;;;;;0.35;0.30;;;;;;;;;;4975484;28;20444;-79
2022/06/04 04:29:27;;;;;;;0.60;0.55;;;;;;;;;;4975376;28;20493;-79
2022/06/04 04:31:52;;;;;;;0.50;0.50;;;;;;;;;;4975351;28;20027;-80
2022/06/04 04:34:17;;;;;;;0.43;0.43;;;;;;;;;;4958319;28;20041;-81
2022/06/04 04:36:45;;;;;;;1.13;0.60;;;;;;;;;;4975285;28;20113;-80
2022/06/04 04:39:15;;;;;;;0.10;0.10;;;;;;;;;;4975304;28;20106;-80
2022/06/04 04:41:40;;;;;;;0.70;0.52;;;;;;;;;;4975194;28;20444;-80
2022/06/04 04:44:06;;;;;;;1.00;0.90;;;;;;;;;;4975498;28;20031;-79
2022/06/04 04:46:31;;;;;;;1.23;0.98;;;;;;;;;;4975293;28;20101;-82
2022/06/04 04:48:57;;;;;;;0.57;0.57;;;;;;;;;;5007147;28;20387;-79
2022/06/04 04:51:26;;;;;;;0.63;0.63;;;;;;;;;;4975198;28;20398;-81
2022/06/04 04:53:55;;;;;;;0.95;0.52;;;;;;;;;;4975138;28;20408;-78
2022/06/04 04:56:26;;;;;;;0.40;0.40;;;;;;;;;;4975291;28;20100;-77
2022/06/04 04:58:51;;;;;;;0.60;0.40;;;;;;;;;;4978830;28;20031;-79
2022/06/04 05:01:22;;;;;;;0.45;0.43;;;;;;;;;;4979185;28;20121;-81
2022/06/04 05:03:53;;;;;;;0.50;0.45;;;;;;;;;;4978747;28;20038;-79
2022/06/04 05:06:19;;;;;;;0.35;0.25;;;;;;;;;;4978758;28;20027;-80
2022/06/04 05:08:45;;;;;;;0.65;0.52;;;;;;;;;;4977777;28;20478;-80
2022/06/04 05:11:16;;;;;;;0.80;0.60;;;;;;;;;;5010286;28;20031;-81
2022/06/04 05:13:43;;;;;;;1.35;1.25;;;;;;;;;;4978879;28;20026;-82
2022/06/04 05:16:09;;;;;;;0.60;0.60;;;;;;;;;;4978550;28;20093;-82
2022/06/04 05:18:37;;;;;;;0.52;0.52;;;;;;;;;;5010531;28;20042;-83
2022/06/04 05:21:08;;;;;;;0.68;0.68;;;;;;;;;;4979275;28;20030;-81
2022/06/04 05:23:33;;;;;;;0.50;0.50;;;;;;;;;;4978301;28;20030;-81
2022/06/04 05:25:59;;;;;;;0.93;0.93;;;;;;;;;;5010132;28;20101;-81
2022/06/04 05:28:24;;;;;;;0.77;0.73;;;;;;;;;;4978093;28;20395;-81
2022/06/04 05:30:50;;;;;;;1.15;1.05;;;;;;;;;;4993515;28;20022;-81
2022/06/04 05:33:15;;;;;;;0.65;0.65;;;;;;;;;;4977371;28;20027;-80
2022/06/04 05:35:40;;;;;;;0.50;0.25;;;;;;;;;;4978314;28;20403;-80
2022/06/04 05:38:06;;;;;;;0.75;0.55;;;;;;;;;;4978686;28;20498;-80
2022/06/04 05:40:31;;;;;;;5.22;1.20;;;;;;;;;;4977345;28;20482;-80
2022/06/04 05:42:56;;;;;;;0.82;0.45;;;;;;;;;;4978595;28;20109;-80
2022/06/04 05:45:24;;;;;;;0.85;0.57;;;;;;;;;;4978387;28;20030;-81
2022/06/04 05:47:52;;;;;;;3.75;1.02;;;;;;;;;;4978382;28;20038;-81
2022/06/04 05:50:17;;;;;;;1.55;1.15;;;;;;;;;;4978153;28;20102;-80
2022/06/04 05:52:43;;;;;;;0.70;0.50;;;;;;;;;;5009507;28;20031;-80
2022/06/04 05:55:10;;;;;;;1.60;1.20;;;;;;;;;;4977960;28;20022;-81
2022/06/04 05:57:36;;;;;;;0.65;0.57;;;;;;;;;;4977891;28;20027;-81
2022/06/04 06:00:01;;;;;;;0.95;0.85;;;;;;;;;;4977920;28;20038;-80
2022/06/04 06:02:26;;;;;;;0.65;0.65;;;;;;;;;;4978065;28;20085;-81
2022/06/04 06:04:52;;;;;;;1.73;1.60;;;;;;;;;;4977658;28;20035;-82
2022/06/04 06:07:17;;;;;;;0.57;0.52;;;;;;;;;;5009325;28;20031;-81
2022/06/04 06:09:42;;;;;;;1.95;1.25;;;;;;;;;;4977676;28;20023;-82
2022/06/04 06:12:10;;;;;;;3.03;0.70;;;;;;;;;;5009484;28;20114;-81
2022/06/04 06:14:38;;;;;;;0.38;0.38;;;;;;;;;;4977748;28;20385;-82
2022/06/04 06:17:08;;;;;;;1.27;0.75;;;;;;;;;;4976567;28;20031;-82
2022/06/04 06:19:34;;;;;;;0.55;0.55;;;;;;;;;;4977982;28;20508;-81
2022/06/04 06:22:02;;;;;;;0.47;0.40;;;;;;;;;;4977406;28;20118;-81
2022/06/04 06:24:30;;;;;;;0.50;0.50;;;;;;;;;;5008658;28;20035;-81
2022/06/04 06:26:58;;;;;;;0.70;0.70;;;;;;;;;;4977649;28;20023;-79
2022/06/04 06:29:26;;;;;;;0.55;0.47;;;;;;;;;;4977300;28;20449;-81
2022/06/04 06:31:52;;;;;;;1.13;0.93;;;;;;;;;;4977207;28;20354;-81
2022/06/04 06:34:17;;;;;;;0.52;0.52;;;;;;;;;;5009080;28;20038;-81
2022/06/04 06:36:42;;;;;;;0.90;0.63;;;;;;;;;;5008918;28;20376;-80
2022/06/04 06:39:08;;;;;;;1.08;0.57;;;;;;;;;;4977540;28;20110;-81
2022/06/04 06:41:36;;;;;;;0.80;0.55;;;;;;;;;;4977223;28;20492;-81
2022/06/04 06:44:04;;;;;;;0.40;0.40;;;;;;;;;;4977133;28;20023;-81
2022/06/04 06:46:35;;;;;;;1.05;0.70;;;;;;;;;;4976610;28;20022;-81
2022/06/04 06:49:00;;;;;;;1.00;0.90;;;;;;;;;;4977494;28;20428;-80
2022/06/04 06:51:33;;;;;;;2.53;0.80;;;;;;;;;;4976858;28;20038;-81
2022/06/04 06:53:59;;;;;;;0.35;0.35;;;;;;;;;;4977443;28;20026;-80
2022/06/04 06:56:28;;;;;;;0.40;0.40;;;;;;;;;;4976814;28;20030;-82
2022/06/04 06:58:59;;;;;;;0.70;0.65;;;;;;;;;;4992013;28;20022;-82
2022/06/04 07:01:27;;;;;;;1.20;1.08;;;;;;;;;;4975714;28;20030;-80
2022/06/04 07:03:55;;;;;;;0.28;0.28;;;;;;;;;;4976806;28;20479;-81
2022/06/04 07:06:33;;;;;;;1.00;0.57;;;;;;;;;;5008286;28;20037;-80
2022/06/04 07:08:59;;;;;;;0.93;0.70;;;;;;;;;;5008256;28;20037;-80
2022/06/04 07:11:25;;;;;;;0.88;0.85;;;;;;;;;;4976550;28;20081;-81
2022/06/04 07:13:53;;;;;;;0.90;0.52;;;;;;;;;;4976692;28;20019;-80
2022/06/04 07:16:19;;;;;;;1.02;0.93;;;;;;;;;;5007984;28;20115;-81
2022/06/04 07:18:47;;;;;;;1.00;0.75;;;;;;;;;;4976322;28;20136;-81
2022/06/04 07:21:13;;;;;;;0.77;0.77;;;;;;;;;;4991192;28;20031;-81
2022/06/04 07:23:39;;;;;;;2.53;1.50;;;;;;;;;;4976322;28;20417;-79
2022/06/04 07:26:07;;;;;;;1.20;0.70;;;;;;;;;;5008004;28;20022;-81
2022/06/04 07:28:32;;;;;;;1.75;1.17;;;;;;;;;;4975515;28;20037;-82
2022/06/04 07:31:01;;;;;;;0.20;0.20;;;;;;;;;;4976555;28;20027;-81
2022/06/04 07:33:27;;;;;;;1.50;0.80;;;;;;;;;;5007647;28;20065;-80
2022/06/04 07:35:53;;;;;;;0.80;0.50;;;;;;;;;;4976263;28;20046;-80
2022/06/04 07:38:23;;;;;;;0.65;0.65;;;;;;;;;;4975903;28;20492;-81
2022/06/04 07:40:48;;;;;;;1.70;0.77;;;;;;;;;;5007559;28;20372;-80
2022/06/04 07:43:16;;;;;;;1.08;0.95;;;;;;;;;;4976482;28;20125;-79
2022/06/04 07:45:41;;;;;;;0.63;0.60;;;;;;;;;;4975422;28;20022;-83
2022/06/04 07:48:10;;;;;;;1.60;0.80;;;;;;;;;;5007602;28;20018;-81
2022/06/04 07:50:37;;;;;;;0.40;0.30;;;;;;;;;;5007575;28;20027;-82
2022/06/04 07:53:05;;;;;;;1.77;1.08;;;;;;;;;;5007642;28;20341;-81
2022/06/04 07:55:30;;;;;;;1.08;0.50;;;;;;;;;;4976210;28;20034;-82
2022/06/04 07:57:56;;;;;;;0.73;0.73;;;;;;;;;;4975961;28;20374;-82
2022/06/04 08:00:23;;;;;;;0.57;0.50;;;;;;;;;;4975984;28;20389;-82
2022/06/04 08:02:50;;;;;;;0.82;0.60;;;;;;;;;;4974901;28;20487;-82
2022/06/04 08:05:18;;;;;;;0.73;0.73;;;;;;;;;;4975092;28;20034;-80
2022/06/04 08:07:49;;;;;;;0.50;0.50;;;;;;;;;;4975060;28;20028;-80
2022/06/04 08:10:14;;;;;;;1.63;0.75;;;;;;;;;;4975481;28;20093;-81
2022/06/04 08:13:00;;;;;;;0.35;0.35;;;;;;;;;;4975075;28;20023;-82
2022/06/04 08:15:28;;;;;;;0.65;0.40;;;;;;;;;;5002081;28;20026;-81
2022/06/04 08:17:56;;;;;;;0.90;0.82;;;;;;;;;;4975865;28;20069;-80
2022/06/04 08:20:21;;;;;;;1.80;0.95;;;;;;;;;;4979032;28;20022;-83
2022/06/04 08:22:47;;;;;;;0.85;0.85;;;;;;;;;;5008637;28;20329;-82
2022/06/04 08:31:58;;;;;;;1.88;1.73;;;;;;;;;;4996743;28;20088;-79
2022/06/04 08:34:28;;;;;;;1.08;0.75;;;;;;;;;;4981238;28;20038;-81
2022/06/04 08:36:54;;;;;;;0.98;0.93;;;;;;;;;;4997635;28;20518;-81
2022/06/04 08:39:19;;;;;;;1.35;1.10;;;;;;;;;;4981080;28;20102;-81
2022/06/04 08:42:04;;;;;;;1.35;1.25;;;;;;;;;;4980948;28;20049;-80
2022/06/04 08:44:36;;;;;;;2.30;1.50;;;;;;;;;;4997372;28;20038;-82
2022/06/04 08:47:17;;;;;;;1.60;0.95;;;;;;;;;;4981519;28;20125;-82
2022/06/04 08:49:43;;;;;;;3.05;1.20;;;;;;;;;;4981228;28;20142;-81
2022/06/04 08:52:27;;;;;;;1.13;1.00;;;;;;;;;;4980708;28;20113;-81
2022/06/04 08:57:50;;;;;;;1.55;0.90;;;;;;;;;;4995585;28;20042;-79
2022/06/04 09:00:24;;;;;;;1.17;0.90;;;;;;;;;;4978631;28;20030;-81
2022/06/04 09:03:19;;;;;;;1.92;0.90;;;;;;;;;;4979098;28;20089;-80
2022/06/04 09:06:00;;;;;;;0.45;0.45;;;;;;;;;;4981564;28;20066;-80
2022/06/04 09:08:40;;;;;;;1.23;1.13;;;;;;;;;;4979148;28;20085;-81
2022/06/04 09:11:12;;;;;;;1.60;0.82;;;;;;;;;;5010036;28;20045;-81
2022/06/04 09:13:46;;;;;;;2.43;1.37;;;;;;;;;;5010959;28;20026;-81
2022/06/04 09:16:26;;;;;;;1.55;0.80;;;;;;;;;;4978198;28;20085;-82
2022/06/04 09:18:56;;;;;;;0.70;0.50;;;;;;;;;;4979461;28;20070;-82
2022/06/04 09:21:22;;;;;;;2.13;1.38;;;;;;;;;;4977770;28;20046;-79
2022/06/04 09:23:48;;;;;;;0.85;0.85;;;;;;;;;;5010452;28;20031;-81
2022/06/04 09:26:15;;;;;;;0.45;0.45;;;;;;;;;;4979351;28;20026;-81
2022/06/04 09:29:10;;;;;;;0.50;0.45;;;;;;;;;;4978752;28;20125;-81
2022/06/04 09:31:47;;;;;;;1.45;1.27;;;;;;;;;;4978762;28;20058;-81
2022/06/04 09:34:23;;;;;;;0.90;0.52;;;;;;;;;;4978431;28;20041;-81
2022/06/04 09:36:52;;;;;;;1.02;0.93;;;;;;;;;;4978349;28;20520;-80
2022/06/04 09:39:20;;;;;;;1.15;0.75;;;;;;;;;;5010205;28;20031;-80
2022/06/04 09:41:53;;;;;;;1.00;0.93;;;;;;;;;;4978523;28;20076;-80
2022/06/04 09:44:19;;;;;;;0.50;0.50;;;;;;;;;;5009617;28;20495;-80
2022/06/04 09:46:47;;;;;;;0.80;0.80;;;;;;;;;;4978258;28;20019;-80
2022/06/04 09:49:18;;;;;;;1.13;0.98;;;;;;;;;;5010026;28;20019;-80
2022/06/04 09:51:43;;;;;;;1.83;0.90;;;;;;;;;;4978457;28;20038;-79
2022/06/04 09:54:21;;;;;;;0.77;0.77;;;;;;;;;;4978089;28;20277;-81
2022/06/04 09:56:52;;;;;;;1.02;0.93;;;;;;;;;;4977758;28;20362;-79
2022/06/04 09:59:24;;;;;;;1.20;0.88;;;;;;;;;;4978059;28;20049;-81
2022/06/04 10:02:12;;;;;;;;;;;;;;;;;;5009963;28;20023;-81
2022/06/04 10:04:47;;;;;;;0.70;0.43;;;;;;;;;;4993432;28;19914;-78
2022/06/04 10:07:17;;;;;;;1.95;1.20;;;;;;;;;;5009135;28;20107;-77
2022/06/04 10:09:56;;;;;;;1.45;0.90;;;;;;;;;;5009410;28;20445;-79
2022/06/04 10:15:44;;;;;;;1.17;0.75;;;;;;;;;;4977390;28;20085;-79
2022/06/04 10:18:26;;;;;;;2.72;1.48;;;;;;;;;;4978456;28;20033;-80
2022/06/04 10:24:24;;;;;;;1.63;0.90;;;;;;;;;;4979480;28;20122;-81
2022/06/04 10:27:24;;;;;;;1.65;1.35;;;;;;;;;;4979240;28;20031;-83
2022/06/04 10:30:04;;;;;;;1.23;0.98;;;;;;;;;;4979428;28;20448;-82
2022/06/04 10:32:38;;;;;;;1.05;0.57;;;;;;;;;;4993370;28;20027;-82
2022/06/04 10:38:52;;;;;;;0.55;0.55;;;;;;;;;;4977605;28;20089;-77
2022/06/04 10:45:08;;;;;;;1.50;1.27;;;;;;;;;;4977517;28;20057;-79
2022/06/04 10:47:39;;;;;;;1.45;1.35;;;;;;;;;;4975837;28;20073;-79
2022/06/04 10:50:28;;;;;;;1.05;0.93;;;;;;;;;;4992421;28;20412;-80
2022/06/04 10:53:02;;;;;;;1.13;0.68;;;;;;;;;;4975946;28;20039;-80
2022/06/04 10:55:56;;;;;;;1.20;1.10;;;;;;;;;;4991974;28;20096;-80
2022/06/04 10:58:30;;;;;;;1.65;1.45;;;;;;;;;;5008316;28;20058;-80
2022/06/04 11:01:22;;;;;;;2.33;1.90;;;;;;;;;;4992250;28;20093;-80
2022/06/04 11:03:52;;;;;;;0.88;0.85;;;;;;;;;;5009236;28;20059;-80
2022/06/04 11:06:58;;;;;;;1.33;1.23;;;;;;;;;;4993025;28;20118;-80
2022/06/04 11:09:35;;;;;;;2.22;1.25;;;;;;;;;;4978274;28;20177;-81
2022/06/04 11:12:09;;;;;;;1.70;1.05;;;;;;;;;;4959807;28;20031;-80
2022/06/04 11:14:47;;;;;;;1.08;0.98;;;;;;;;;;4960236;28;20050;-80
2022/06/04 11:17:26;;;;;;;2.53;1.52;;;;;;;;;;4991673;28;20034;-80
2022/06/04 11:20:14;;;;;;;0.82;0.82;;;;;;;;;;5008066;28;20100;-81
2022/06/04 11:22:45;;;;;;;1.60;1.48;;;;;;;;;;4959781;28;20437;-80
2022/06/04 11:25:19;;;;;;;2.30;1.05;;;;;;;;;;5008371;28;20133;-80
2022/06/04 11:27:51;;;;;;;2.38;1.15;;;;;;;;;;5008936;28;20425;-81
2022/06/04 11:30:20;;;;;;;1.27;0.77;;;;;;;;;;4975927;28;20031;-80
2022/06/04 11:32:56;;;;;;;1.60;0.90;;;;;;;;;;4991943;28;20033;-80
2022/06/04 11:35:30;;;;;;;1.20;0.77;;;;;;;;;;4975628;28;20102;-81
2022/06/04 11:38:14;;;;;;;1.30;0.93;;;;;;;;;;4991684;28;20049;-80
2022/06/04 11:40:58;;;;;;;2.78;0.82;;;;;;;;;;4991339;28;20030;-80
2022/06/04 11:43:29;;;;;;;0.90;0.88;;;;;;;;;;4992188;28;20046;-81
2022/06/04 11:46:03;;;;;;;1.35;0.95;;;;;;;;;;4976369;28;20022;-80
2022/06/04 11:48:38;;;;;;;2.80;0.90;;;;;;;;;;4976291;28;20046;-80
2022/06/04 11:51:21;;;;;;;2.13;1.33;;;;;;;;;;4991181;28;20081;-82
2022/06/04 12:00:30;;;;;;;2.73;1.73;;;;;;;;;;4993766;28;20037;-80
2022/06/04 12:09:35;;;;;;;2.47;1.27;;;;;;;;;;5000428;28;20050;-82
2022/06/04 12:12:09;;;;;;;2.38;1.40;;;;;;;;;;4977523;28;20507;-80
2022/06/04 12:15:02;;;;;;;0.82;0.82;;;;;;;;;;4977216;28;20052;-80
2022/06/04 12:17:41;;;;;;;0.77;0.77;;;;;;;;;;4977145;28;20038;-79
2022/06/04 12:25:56;;;;;;;1.13;0.90;;;;;;;;;;4979800;28;20045;-81
2022/06/04 12:38:41;;;;;;;0.57;0.57;;;;;;;;;;4823856;29;20045;-80
2022/06/04 12:41:14;;;;;;;0.40;0.40;;;;;;;;;;4823755;29;20049;-80
2022/06/04 12:44:02;;;;;;;1.40;1.23;;;;;;;;;;4823600;29;20159;-80
2022/06/04 12:46:31;;;;;;;0.55;0.40;;;;;;;;;;4808985;29;20138;-80
2022/06/04 12:48:59;;;;;;;1.00;0.73;;;;;;;;;;4823676;29;20064;-80
2022/06/04 12:51:43;;;;;;;0.30;0.30;;;;;;;;;;4823498;29;20384;-81
2022/06/04 12:54:27;;;;;;;0.80;0.80;;;;;;;;;;4823940;29;20062;-81
2022/06/04 12:56:55;;;;;;;1.85;0.68;;;;;;;;;;4808368;29;20026;-81
2022/06/04 12:59:34;;;;;;;1.00;0.95;;;;;;;;;;4808405;29;20042;-81
2022/06/04 13:02:00;;;;;;;2.45;1.00;;;;;;;;;;4823525;29;20068;-82
2022/06/04 13:04:38;;;;;;;0.35;0.35;;;;;;;;;;4808239;29;20425;-81
2022/06/04 13:07:25;;;;;;;0.65;0.65;;;;;;;;;;4878710;29;20029;-81
2022/06/04 13:10:03;;;;;;;0.40;0.40;;;;;;;;;;4894064;29;20482;-81
2022/06/04 13:12:31;;;;;;;0.60;0.50;;;;;;;;;;4984182;28;20039;-81
2022/06/04 13:15:30;;;;;;;0.95;0.60;;;;;;;;;;4990724;28;20030;-81
2022/06/04 13:17:56;;;;;;;0.20;0.20;;;;;;;;;;4991471;28;20050;-81
2022/06/04 13:20:31;;;;;;;0.70;0.70;;;;;;;;;;4993789;28;20093;-81
2022/06/04 13:23:19;;;;;;;1.23;1.13;;;;;;;;;;4997832;28;20031;-80
2022/06/04 13:26:11;;;;;;;0.45;0.45;;;;;;;;;;5012779;28;20038;-80
2022/06/04 13:28:40;;;;;;;0.40;0.40;;;;;;;;;;4994311;28;20065;-81
2022/06/04 13:31:20;;;;;;;0.75;0.40;;;;;;;;;;4993829;28;20074;-81
2022/06/04 13:33:46;;;;;;;0.28;0.28;;;;;;;;;;4994657;28;20062;-81
2022/06/04 13:36:36;;;;;;;0.32;0.32;;;;;;;;;;4977770;28;20027;-80
2022/06/04 13:39:10;;;;;;;1.65;1.02;;;;;;;;;;5009849;28;20035;-81
2022/06/04 13:44:27;;;;;;;0.75;0.60;;;;;;;;;;5005545;28;20419;-81
2022/06/04 13:46:59;;;;;;;0.75;0.63;;;;;;;;;;4993652;28;20038;-81
2022/06/04 13:49:26;;;;;;;0.73;0.60;;;;;;;;;;4994038;28;20050;-81
2022/06/04 13:52:01;;;;;;;0.63;0.63;;;;;;;;;;4977815;28;20041;-81
2022/06/04 13:54:37;;;;;;;0.95;0.60;;;;;;;;;;5009728;28;20165;-81
2022/06/04 13:57:05;;;;;;;1.52;1.02;;;;;;;;;;4961142;28;20030;-81
2022/06/04 13:59:39;;;;;;;0.80;0.80;;;;;;;;;;4978311;28;20468;-81
2022/06/04 14:02:13;;;;;;;0.68;0.60;;;;;;;;;;4993819;28;20441;-81
2022/06/04 14:07:35;;;;;;;0.75;0.40;;;;;;;;;;5005201;28;20038;-81
2022/06/04 14:10:01;;;;;;;0.40;0.40;;;;;;;;;;4960950;28;20169;-81
2022/06/04 14:12:47;;;;;;;0.47;0.47;;;;;;;;;;5009621;28;20042;-81
2022/06/04 14:15:27;;;;;;;0.57;0.57;;;;;;;;;;4993366;28;20054;-81
2022/06/04 14:18:22;;;;;;;2.25;0.73;;;;;;;;;;4977196;28;20042;-81
2022/06/04 14:20:56;;;;;;;0.65;0.65;;;;;;;;;;5008767;28;20341;-81
2022/06/04 14:24:03;;;;;;;0.50;0.50;;;;;;;;;;4993209;28;20520;-81
2022/06/04 14:26:50;;;;;;;0.52;0.52;;;;;;;;;;4992894;28;20385;-81
2022/06/04 14:29:32;;;;;;;0.57;0.32;;;;;;;;;;4993519;28;20027;-81
2022/06/04 14:32:00;;;;;;;0.50;0.50;;;;;;;;;;4993771;28;20034;-81
2022/06/04 14:34:37;;;;;;;1.50;0.40;;;;;;;;;;4992711;28;20053;-81
2022/06/04 14:37:03;;;;;;;0.68;0.57;;;;;;;;;;4992760;28;20023;-80
2022/06/04 14:39:31;;;;;;;0.20;0.20;;;;;;;;;;4961042;28;20026;-81
2022/06/04 14:42:21;;;;;;;0.35;0.35;;;;;;;;;;5008999;28;20456;-81
2022/06/04 14:45:04;;;;;;;1.50;0.82;;;;;;;;;;4992491;28;20046;-80
2022/06/04 14:47:35;;;;;;;2.42;0.95;;;;;;;;;;4992534;28;20345;-81
2022/06/04 14:50:19;;;;;;;1.30;0.80;;;;;;;;;;4992499;28;20423;-80
2022/06/04 14:52:47;;;;;;;0.70;0.60;;;;;;;;;;4992548;28;20286;-81
2022/06/04 14:55:16;;;;;;;1.48;0.40;;;;;;;;;;4960158;28;20109;-80
2022/06/04 14:58:10;;;;;;;1.45;0.65;;;;;;;;;;4992363;28;20400;-80
2022/06/04 15:01:00;;;;;;;0.30;0.30;;;;;;;;;;4977113;28;20212;-81
2022/06/04 15:03:59;;;;;;;0.50;0.50;;;;;;;;;;4992142;28;20126;-81
2022/06/04 15:06:29;;;;;;;0.40;0.40;;;;;;;;;;4977572;28;20106;-81
2022/06/04 15:09:35;;;;;;;0.50;0.50;;;;;;;;;;5008576;28;20037;-81
2022/06/04 15:12:23;;;;;;;0.85;0.60;;;;;;;;;;4977068;28;20050;-81
2022/06/04 15:15:01;;;;;;;0.45;0.45;;;;;;;;;;5008208;28;20026;-81
2022/06/04 15:17:48;;;;;;;0.43;0.35;;;;;;;;;;5008426;28;20034;-80
2022/06/04 15:20:21;;;;;;;0.63;0.50;;;;;;;;;;4991795;28;20089;-81
2022/06/04 15:23:17;;;;;;;1.15;1.05;;;;;;;;;;5008672;28;20027;-81
2022/06/04 15:25:47;;;;;;;0.35;0.30;;;;;;;;;;4992578;28;20027;-81
2022/06/04 15:34:10;;;;;;;0.65;0.47;;;;;;;;;;4976707;28;20120;-79
2022/06/04 15:37:09;;;;;;;0.95;0.65;;;;;;;;;;4959319;28;20031;-80
2022/06/04 15:39:40;;;;;;;2.13;0.60;;;;;;;;;;4978503;28;20145;-79
2022/06/04 15:42:06;;;;;;;0.32;0.32;;;;;;;;;;4975310;28;20085;-80
2022/06/04 15:44:32;;;;;;;0.43;0.43;;;;;;;;;;4991353;28;20428;-80
2022/06/04 15:47:12;;;;;;;2.25;1.20;;;;;;;;;;4959177;28;20444;-81
2022/06/04 15:55:42;;;;;;;0.50;0.50;;;;;;;;;;4975872;28;20271;-80
2022/06/04 15:58:12;;;;;;;0.32;0.32;;;;;;;;;;4991972;28;20502;-81
2022/06/04 16:00:41;;;;;;;0.73;0.38;;;;;;;;;;5008153;28;20026;-80
2022/06/04 16:03:17;;;;;;;1.60;0.60;;;;;;;;;;4991173;28;20030;-81
2022/06/04 16:06:17;;;;;;;0.30;0.30;;;;;;;;;;4958890;28;20035;-81
2022/06/04 16:08:49;;;;;;;0.55;0.55;;;;;;;;;;5007445;28;20400;-81
2022/06/04 16:12:03;;;;;;;0.40;0.40;;;;;;;;;;4991066;28;20078;-81
2022/06/04 16:14:51;;;;;;;1.05;0.95;;;;;;;;;;4974648;28;20038;-82
2022/06/04 16:17:31;;;;;;;1.00;0.60;;;;;;;;;;4975342;28;20030;-81
2022/06/04 16:20:02;;;;;;;0.55;0.55;;;;;;;;;;5007353;28;20023;-81
2022/06/04 16:22:33;;;;;;;0.60;0.60;;;;;;;;;;4991000;28;20018;-82
2022/06/04 16:25:17;;;;;;;0.30;0.30;;;;;;;;;;4975743;28;20038;-82
2022/06/04 16:28:00;;;;;;;1.00;0.90;;;;;;;;;;4959733;28;20038;-81
2022/06/04 16:30:27;;;;;;;0.85;0.60;;;;;;;;;;4990844;28;20026;-81
2022/06/04 16:33:04;;;;;;;0.70;0.70;;;;;;;;;;4958651;28;20022;-81
2022/06/04 16:35:50;;;;;;;1.45;0.75;;;;;;;;;;5007743;28;20049;-81